sensor_id;sensor_type;location;lat;lon;timestamp;temperature;humidity
11122;DHT22;5615;49.304;10.576;2023-12-14T00:00:51;5.40;99.90
11122;DHT22;5615;49.304;10.576;2023-12-14T00:03:19;5.30;99.90
11122;DHT22;5615;49.304;10.576;2023-12-14T00:05:46;5.30;99.90
11122;DHT22;5615;49.304;10.576;2023-12-14T00:08:12;5.30;99.90
11122;DHT22;5615;49.304;10.576;2023-12-14T00:10:39;5.40;99.90
11122;DHT22;5615;49.304;10.576;2023-12-14T00:13:06;5.40;99.90
11122;DHT22;5615;49.304;10.576;2023-12-14T00:15:34;5.40;99.90
11122;DHT22;5615;49.304;10.576;2023-12-14T00:18:01;5.40;99.90
11122;DHT22;5615;49.304;10.576;2023-12-14T00:20:28;5.40;99.90
11122;DHT22;5615;49.304;10.576;2023-12-14T00:22:55;5.50;99.90
11122;DHT22;5615;49.304;10.576;2023-12-14T00:25:22;5.50;99.90
11122;DHT22;5615;49.304;10.576;2023-12-14T00:27:49;5.60;99.90
11122;DHT22;5615;49.304;10.576;2023-12-14T00:30:16;5.60;99.90
11122;DHT22;5615;49.304;10.576;2023-12-14T00:32:44;5.60;99.90
11122;DHT22;5615;49.304;10.576;2023-12-14T00:35:11;5.60;99.90
11122;DHT22;5615;49.304;10.576;2023-12-14T00:37:38;5.60;99.90
11122;DHT22;5615;49.304;10.576;2023-12-14T00:40:06;5.60;99.90
11122;DHT22;5615;49.304;10.576;2023-12-14T00:42:33;5.50;99.90
11122;DHT22;5615;49.304;10.576;2023-12-14T00:45:00;5.50;99.90
11122;DHT22;5615;49.304;10.576;2023-12-14T00:47:27;5.50;99.90
11122;DHT22;5615;49.304;10.576;2023-12-14T00:49:55;5.50;99.90
11122;DHT22;5615;49.304;10.576;2023-12-14T00:52:22;5.50;99.90
11122;DHT22;5615;49.304;10.576;2023-12-14T00:54:49;5.50;99.90
11122;DHT22;5615;49.304;10.576;2023-12-14T00:57:16;5.50;99.90
11122;DHT22;5615;49.304;10.576;2023-12-14T00:59:43;5.50;99.90
11122;DHT22;5615;49.304;10.576;2023-12-14T01:02:10;5.50;99.90
11122;DHT22;5615;49.304;10.576;2023-12-14T01:04:37;5.50;99.90
11122;DHT22;5615;49.304;10.576;2023-12-14T01:07:06;5.50;99.90
11122;DHT22;5615;49.304;10.576;2023-12-14T01:09:33;5.50;99.90
11122;DHT22;5615;49.304;10.576;2023-12-14T01:12:00;5.50;99.90
11122;DHT22;5615;49.304;10.576;2023-12-14T01:14:27;5.50;99.90
11122;DHT22;5615;49.304;10.576;2023-12-14T01:16:54;5.50;99.90
11122;DHT22;5615;49.304;10.576;2023-12-14T01:19:34;5.60;99.90
11122;DHT22;5615;49.304;10.576;2023-12-14T01:22:02;5.60;99.90
11122;DHT22;5615;49.304;10.576;2023-12-14T01:24:32;5.60;99.90
11122;DHT22;5615;49.304;10.576;2023-12-14T01:26:59;5.60;99.90
11122;DHT22;5615;49.304;10.576;2023-12-14T01:29:26;5.60;99.90
11122;DHT22;5615;49.304;10.576;2023-12-14T01:31:53;5.60;99.90
11122;DHT22;5615;49.304;10.576;2023-12-14T01:34:20;5.50;99.90
11122;DHT22;5615;49.304;10.576;2023-12-14T01:36:47;5.50;99.90
11122;DHT22;5615;49.304;10.576;2023-12-14T01:39:13;5.50;99.90
11122;DHT22;5615;49.304;10.576;2023-12-14T01:44:54;5.50;99.90
11122;DHT22;5615;49.304;10.576;2023-12-14T01:47:22;5.50;99.90
11122;DHT22;5615;49.304;10.576;2023-12-14T01:49:49;5.50;99.90
11122;DHT22;5615;49.304;10.576;2023-12-14T01:52:17;5.50;99.90
11122;DHT22;5615;49.304;10.576;2023-12-14T01:54:45;5.50;99.90
11122;DHT22;5615;49.304;10.576;2023-12-14T01:57:12;5.40;99.90
11122;DHT22;5615;49.304;10.576;2023-12-14T01:59:41;5.40;99.90
11122;DHT22;5615;49.304;10.576;2023-12-14T02:02:10;5.50;99.90
11122;DHT22;5615;49.304;10.576;2023-12-14T02:04:43;5.50;99.90
11122;DHT22;5615;49.304;10.576;2023-12-14T02:07:11;5.40;99.90
11122;DHT22;5615;49.304;10.576;2023-12-14T02:09:38;5.50;99.90
11122;DHT22;5615;49.304;10.576;2023-12-14T02:12:05;5.50;99.90
11122;DHT22;5615;49.304;10.576;2023-12-14T02:14:32;5.50;99.90
11122;DHT22;5615;49.304;10.576;2023-12-14T02:16:59;5.50;99.90
11122;DHT22;5615;49.304;10.576;2023-12-14T02:19:28;5.60;99.90
11122;DHT22;5615;49.304;10.576;2023-12-14T02:21:54;5.60;99.90
11122;DHT22;5615;49.304;10.576;2023-12-14T02:24:23;5.70;99.90
11122;DHT22;5615;49.304;10.576;2023-12-14T02:26:50;5.60;99.90
11122;DHT22;5615;49.304;10.576;2023-12-14T02:29:16;5.70;99.90
11122;DHT22;5615;49.304;10.576;2023-12-14T02:31:43;5.70;99.90
11122;DHT22;5615;49.304;10.576;2023-12-14T02:34:10;5.60;99.90
11122;DHT22;5615;49.304;10.576;2023-12-14T02:36:36;5.70;99.90
11122;DHT22;5615;49.304;10.576;2023-12-14T02:39:03;5.70;99.90
11122;DHT22;5615;49.304;10.576;2023-12-14T02:41:31;5.60;99.90
11122;DHT22;5615;49.304;10.576;2023-12-14T02:43:58;5.60;99.90
11122;DHT22;5615;49.304;10.576;2023-12-14T02:46:25;5.60;99.90
11122;DHT22;5615;49.304;10.576;2023-12-14T02:48:51;5.60;99.90
11122;DHT22;5615;49.304;10.576;2023-12-14T02:51:18;5.60;99.90
11122;DHT22;5615;49.304;10.576;2023-12-14T02:53:45;5.60;99.90
11122;DHT22;5615;49.304;10.576;2023-12-14T02:56:12;5.60;99.90
11122;DHT22;5615;49.304;10.576;2023-12-14T02:58:40;5.60;99.90
11122;DHT22;5615;49.304;10.576;2023-12-14T03:01:06;5.60;99.90
11122;DHT22;5615;49.304;10.576;2023-12-14T03:03:33;5.60;99.90
11122;DHT22;5615;49.304;10.576;2023-12-14T03:06:00;5.60;99.90
11122;DHT22;5615;49.304;10.576;2023-12-14T03:08:26;5.60;99.90
11122;DHT22;5615;49.304;10.576;2023-12-14T03:10:53;5.60;99.90
11122;DHT22;5615;49.304;10.576;2023-12-14T03:13:20;5.50;99.90
11122;DHT22;5615;49.304;10.576;2023-12-14T03:15:48;5.50;99.90
11122;DHT22;5615;49.304;10.576;2023-12-14T03:18:15;5.50;99.90
11122;DHT22;5615;49.304;10.576;2023-12-14T03:20:42;5.50;99.90
11122;DHT22;5615;49.304;10.576;2023-12-14T03:23:08;5.50;99.90
11122;DHT22;5615;49.304;10.576;2023-12-14T03:25:35;5.50;99.90
11122;DHT22;5615;49.304;10.576;2023-12-14T03:28:02;5.40;99.90
11122;DHT22;5615;49.304;10.576;2023-12-14T03:30:29;5.40;99.90
11122;DHT22;5615;49.304;10.576;2023-12-14T03:32:57;5.40;99.90
11122;DHT22;5615;49.304;10.576;2023-12-14T03:35:23;5.40;99.90
11122;DHT22;5615;49.304;10.576;2023-12-14T03:37:50;5.40;99.90
11122;DHT22;5615;49.304;10.576;2023-12-14T03:40:17;5.30;99.90
11122;DHT22;5615;49.304;10.576;2023-12-14T03:42:44;5.40;99.90
11122;DHT22;5615;49.304;10.576;2023-12-14T03:45:11;5.40;99.90
11122;DHT22;5615;49.304;10.576;2023-12-14T03:47:38;5.40;99.90
11122;DHT22;5615;49.304;10.576;2023-12-14T03:50:10;5.30;99.90
11122;DHT22;5615;49.304;10.576;2023-12-14T03:52:37;5.30;99.90
11122;DHT22;5615;49.304;10.576;2023-12-14T03:55:04;5.40;99.90
11122;DHT22;5615;49.304;10.576;2023-12-14T03:57:31;5.40;99.90
11122;DHT22;5615;49.304;10.576;2023-12-14T03:59:58;5.40;99.90
11122;DHT22;5615;49.304;10.576;2023-12-14T04:02:24;5.40;99.90
11122;DHT22;5615;49.304;10.576;2023-12-14T04:04:51;5.40;99.90
11122;DHT22;5615;49.304;10.576;2023-12-14T04:07:19;5.30;99.90
11122;DHT22;5615;49.304;10.576;2023-12-14T04:09:46;5.30;99.90
11122;DHT22;5615;49.304;10.576;2023-12-14T04:12:14;5.30;99.90
11122;DHT22;5615;49.304;10.576;2023-12-14T04:14:43;5.30;99.90
11122;DHT22;5615;49.304;10.576;2023-12-14T04:17:10;5.30;99.90
11122;DHT22;5615;49.304;10.576;2023-12-14T04:19:38;5.30;99.90
11122;DHT22;5615;49.304;10.576;2023-12-14T04:22:04;5.30;99.90
11122;DHT22;5615;49.304;10.576;2023-12-14T04:24:33;5.20;99.90
11122;DHT22;5615;49.304;10.576;2023-12-14T04:27:00;5.20;99.90
11122;DHT22;5615;49.304;10.576;2023-12-14T04:29:26;5.20;99.90
11122;DHT22;5615;49.304;10.576;2023-12-14T04:31:53;5.20;99.90
11122;DHT22;5615;49.304;10.576;2023-12-14T04:34:20;5.10;99.90
11122;DHT22;5615;49.304;10.576;2023-12-14T04:36:47;5.00;99.90
11122;DHT22;5615;49.304;10.576;2023-12-14T04:39:14;5.00;99.90
11122;DHT22;5615;49.304;10.576;2023-12-14T04:41:43;5.00;99.90
11122;DHT22;5615;49.304;10.576;2023-12-14T04:44:10;5.00;99.90
11122;DHT22;5615;49.304;10.576;2023-12-14T04:46:37;5.00;99.90
11122;DHT22;5615;49.304;10.576;2023-12-14T04:49:04;5.10;99.90
11122;DHT22;5615;49.304;10.576;2023-12-14T04:51:30;5.10;99.90
11122;DHT22;5615;49.304;10.576;2023-12-14T04:53:57;5.20;99.90
11122;DHT22;5615;49.304;10.576;2023-12-14T04:56:24;5.20;99.90
11122;DHT22;5615;49.304;10.576;2023-12-14T04:58:52;5.20;99.90
11122;DHT22;5615;49.304;10.576;2023-12-14T05:01:18;5.20;99.90
11122;DHT22;5615;49.304;10.576;2023-12-14T05:03:45;5.10;99.90
11122;DHT22;5615;49.304;10.576;2023-12-14T05:06:12;5.10;99.90
11122;DHT22;5615;49.304;10.576;2023-12-14T05:08:38;5.10;99.90
11122;DHT22;5615;49.304;10.576;2023-12-14T05:11:05;5.10;99.90
11122;DHT22;5615;49.304;10.576;2023-12-14T05:13:32;5.10;99.90
11122;DHT22;5615;49.304;10.576;2023-12-14T05:16:00;5.20;99.90
11122;DHT22;5615;49.304;10.576;2023-12-14T05:18:27;5.10;99.90
11122;DHT22;5615;49.304;10.576;2023-12-14T05:20:53;5.10;99.90
11122;DHT22;5615;49.304;10.576;2023-12-14T05:23:20;5.20;99.90
11122;DHT22;5615;49.304;10.576;2023-12-14T05:25:47;5.20;99.90
11122;DHT22;5615;49.304;10.576;2023-12-14T05:28:14;5.20;99.90
11122;DHT22;5615;49.304;10.576;2023-12-14T05:30:40;5.20;99.90
11122;DHT22;5615;49.304;10.576;2023-12-14T05:33:08;5.20;99.90
11122;DHT22;5615;49.304;10.576;2023-12-14T05:35:35;5.20;99.90
11122;DHT22;5615;49.304;10.576;2023-12-14T05:38:02;5.10;99.90
11122;DHT22;5615;49.304;10.576;2023-12-14T05:40:28;5.00;99.90
11122;DHT22;5615;49.304;10.576;2023-12-14T05:42:55;4.90;99.90
11122;DHT22;5615;49.304;10.576;2023-12-14T05:45:22;4.90;99.90
11122;DHT22;5615;49.304;10.576;2023-12-14T05:47:48;4.80;99.90
11122;DHT22;5615;49.304;10.576;2023-12-14T05:50:18;4.70;99.90
11122;DHT22;5615;49.304;10.576;2023-12-14T05:52:44;4.70;99.90
11122;DHT22;5615;49.304;10.576;2023-12-14T05:55:11;4.80;99.90
11122;DHT22;5615;49.304;10.576;2023-12-14T05:57:38;4.90;99.90
11122;DHT22;5615;49.304;10.576;2023-12-14T06:00:06;4.90;99.90
11122;DHT22;5615;49.304;10.576;2023-12-14T06:02:34;5.00;99.90
11122;DHT22;5615;49.304;10.576;2023-12-14T06:05:02;4.90;99.90
11122;DHT22;5615;49.304;10.576;2023-12-14T06:07:31;4.90;99.90
11122;DHT22;5615;49.304;10.576;2023-12-14T06:09:57;4.90;99.90
11122;DHT22;5615;49.304;10.576;2023-12-14T06:12:24;4.80;99.90
11122;DHT22;5615;49.304;10.576;2023-12-14T06:14:51;4.70;99.90
11122;DHT22;5615;49.304;10.576;2023-12-14T06:17:18;4.70;99.90
11122;DHT22;5615;49.304;10.576;2023-12-14T06:19:45;4.70;99.90
11122;DHT22;5615;49.304;10.576;2023-12-14T06:22:12;4.70;99.90
11122;DHT22;5615;49.304;10.576;2023-12-14T06:24:40;4.70;99.90
11122;DHT22;5615;49.304;10.576;2023-12-14T06:27:07;4.70;99.90
11122;DHT22;5615;49.304;10.576;2023-12-14T06:29:34;4.60;99.90
11122;DHT22;5615;49.304;10.576;2023-12-14T06:32:00;4.60;99.90
11122;DHT22;5615;49.304;10.576;2023-12-14T06:34:27;4.60;99.90
11122;DHT22;5615;49.304;10.576;2023-12-14T06:36:54;4.60;99.90
11122;DHT22;5615;49.304;10.576;2023-12-14T06:39:23;4.60;99.90
11122;DHT22;5615;49.304;10.576;2023-12-14T06:41:53;4.60;99.90
11122;DHT22;5615;49.304;10.576;2023-12-14T06:44:20;4.60;99.90
11122;DHT22;5615;49.304;10.576;2023-12-14T06:46:47;4.50;99.90
11122;DHT22;5615;49.304;10.576;2023-12-14T06:49:13;4.50;99.90
11122;DHT22;5615;49.304;10.576;2023-12-14T06:51:40;4.50;99.90
11122;DHT22;5615;49.304;10.576;2023-12-14T06:54:07;4.50;99.90
11122;DHT22;5615;49.304;10.576;2023-12-14T06:56:36;4.40;99.90
11122;DHT22;5615;49.304;10.576;2023-12-14T06:59:06;4.40;99.90
11122;DHT22;5615;49.304;10.576;2023-12-14T07:01:34;4.40;99.90
11122;DHT22;5615;49.304;10.576;2023-12-14T07:04:00;4.40;99.90
11122;DHT22;5615;49.304;10.576;2023-12-14T07:06:28;4.40;99.90
11122;DHT22;5615;49.304;10.576;2023-12-14T07:08:55;4.40;99.90
11122;DHT22;5615;49.304;10.576;2023-12-14T07:11:22;4.40;99.90
11122;DHT22;5615;49.304;10.576;2023-12-14T07:13:48;4.40;99.90
11122;DHT22;5615;49.304;10.576;2023-12-14T07:16:17;4.40;99.90
11122;DHT22;5615;49.304;10.576;2023-12-14T07:18:44;4.40;99.90
11122;DHT22;5615;49.304;10.576;2023-12-14T07:21:11;4.50;99.90
11122;DHT22;5615;49.304;10.576;2023-12-14T07:23:38;4.50;99.90
11122;DHT22;5615;49.304;10.576;2023-12-14T07:26:05;4.50;99.90
11122;DHT22;5615;49.304;10.576;2023-12-14T07:28:31;4.50;99.90
11122;DHT22;5615;49.304;10.576;2023-12-14T07:30:58;4.50;99.90
11122;DHT22;5615;49.304;10.576;2023-12-14T07:33:26;4.50;99.90
11122;DHT22;5615;49.304;10.576;2023-12-14T07:35:53;4.50;99.90
11122;DHT22;5615;49.304;10.576;2023-12-14T07:38:20;4.50;99.90
11122;DHT22;5615;49.304;10.576;2023-12-14T07:40:47;4.50;99.90
11122;DHT22;5615;49.304;10.576;2023-12-14T07:43:15;4.50;99.90
11122;DHT22;5615;49.304;10.576;2023-12-14T07:45:42;4.50;99.90
11122;DHT22;5615;49.304;10.576;2023-12-14T07:48:09;4.50;99.90
11122;DHT22;5615;49.304;10.576;2023-12-14T07:50:43;4.50;99.90
11122;DHT22;5615;49.304;10.576;2023-12-14T07:53:11;4.50;99.90
11122;DHT22;5615;49.304;10.576;2023-12-14T07:55:38;4.50;99.90
11122;DHT22;5615;49.304;10.576;2023-12-14T07:58:06;4.40;99.90
11122;DHT22;5615;49.304;10.576;2023-12-14T08:00:32;4.40;99.90
11122;DHT22;5615;49.304;10.576;2023-12-14T08:03:00;4.40;99.90
11122;DHT22;5615;49.304;10.576;2023-12-14T08:05:27;4.30;99.90
11122;DHT22;5615;49.304;10.576;2023-12-14T08:07:55;4.30;99.90
11122;DHT22;5615;49.304;10.576;2023-12-14T08:41:45;5.00;99.90
11122;DHT22;5615;49.304;10.576;2023-12-14T08:44:14;5.00;99.90
11122;DHT22;5615;49.304;10.576;2023-12-14T08:46:50;5.10;99.90
11122;DHT22;5615;49.304;10.576;2023-12-14T08:49:20;5.20;99.90
11122;DHT22;5615;49.304;10.576;2023-12-14T08:51:49;5.20;99.90
11122;DHT22;5615;49.304;10.576;2023-12-14T08:54:21;5.30;99.90
11122;DHT22;5615;49.304;10.576;2023-12-14T08:56:50;5.30;99.90
11122;DHT22;5615;49.304;10.576;2023-12-14T08:59:17;5.30;99.90
11122;DHT22;5615;49.304;10.576;2023-12-14T09:01:45;5.40;99.90
11122;DHT22;5615;49.304;10.576;2023-12-14T09:04:12;5.40;99.90
11122;DHT22;5615;49.304;10.576;2023-12-14T09:06:40;5.40;99.90
11122;DHT22;5615;49.304;10.576;2023-12-14T09:09:10;5.50;99.90
11122;DHT22;5615;49.304;10.576;2023-12-14T09:11:37;5.50;99.90
11122;DHT22;5615;49.304;10.576;2023-12-14T09:14:05;5.50;99.90
11122;DHT22;5615;49.304;10.576;2023-12-14T09:16:31;5.50;99.90
11122;DHT22;5615;49.304;10.576;2023-12-14T09:18:58;5.60;99.90
11122;DHT22;5615;49.304;10.576;2023-12-14T09:21:25;5.70;99.90
11122;DHT22;5615;49.304;10.576;2023-12-14T09:23:52;5.80;99.90
11122;DHT22;5615;49.304;10.576;2023-12-14T09:26:19;5.90;99.90
11122;DHT22;5615;49.304;10.576;2023-12-14T09:28:46;6.00;99.90
11122;DHT22;5615;49.304;10.576;2023-12-14T09:31:14;5.90;99.90
11122;DHT22;5615;49.304;10.576;2023-12-14T09:33:41;6.10;99.90
11122;DHT22;5615;49.304;10.576;2023-12-14T09:36:08;6.30;99.90
11122;DHT22;5615;49.304;10.576;2023-12-14T09:38:35;6.30;99.90
11122;DHT22;5615;49.304;10.576;2023-12-14T09:41:02;6.40;99.90
11122;DHT22;5615;49.304;10.576;2023-12-14T09:43:29;6.70;99.90
11122;DHT22;5615;49.304;10.576;2023-12-14T09:45:56;6.80;99.90
11122;DHT22;5615;49.304;10.576;2023-12-14T09:48:25;6.90;99.90
11122;DHT22;5615;49.304;10.576;2023-12-14T09:50:52;7.00;99.90
11122;DHT22;5615;49.304;10.576;2023-12-14T09:53:19;7.30;99.90
11122;DHT22;5615;49.304;10.576;2023-12-14T09:55:46;7.60;99.90
11122;DHT22;5615;49.304;10.576;2023-12-14T09:58:12;7.40;99.90
11122;DHT22;5615;49.304;10.576;2023-12-14T10:00:40;7.50;99.90
11122;DHT22;5615;49.304;10.576;2023-12-14T10:03:21;7.60;99.90
11122;DHT22;5615;49.304;10.576;2023-12-14T10:05:49;7.60;99.90
11122;DHT22;5615;49.304;10.576;2023-12-14T10:08:17;7.70;99.90
11122;DHT22;5615;49.304;10.576;2023-12-14T10:10:47;7.70;99.90
11122;DHT22;5615;49.304;10.576;2023-12-14T10:13:16;7.70;99.90
11122;DHT22;5615;49.304;10.576;2023-12-14T10:15:44;7.90;99.90
11122;DHT22;5615;49.304;10.576;2023-12-14T10:18:12;8.50;99.90
11122;DHT22;5615;49.304;10.576;2023-12-14T10:20:39;9.60;99.90
11122;DHT22;5615;49.304;10.576;2023-12-14T10:23:07;9.40;99.90
11122;DHT22;5615;49.304;10.576;2023-12-14T10:25:35;9.60;99.90
11122;DHT22;5615;49.304;10.576;2023-12-14T10:28:02;9.20;99.90
11122;DHT22;5615;49.304;10.576;2023-12-14T10:30:29;8.90;99.90
11122;DHT22;5615;49.304;10.576;2023-12-14T10:32:56;8.80;99.90
11122;DHT22;5615;49.304;10.576;2023-12-14T10:35:23;8.40;99.90
11122;DHT22;5615;49.304;10.576;2023-12-14T10:37:51;8.20;99.90
11122;DHT22;5615;49.304;10.576;2023-12-14T10:40:20;8.10;99.90
11122;DHT22;5615;49.304;10.576;2023-12-14T10:42:49;8.00;99.90
11122;DHT22;5615;49.304;10.576;2023-12-14T10:45:17;8.00;99.90
11122;DHT22;5615;49.304;10.576;2023-12-14T10:47:46;8.10;99.90
11122;DHT22;5615;49.304;10.576;2023-12-14T10:50:14;8.10;99.90
11122;DHT22;5615;49.304;10.576;2023-12-14T10:52:41;8.10;99.90
11122;DHT22;5615;49.304;10.576;2023-12-14T10:55:10;8.30;99.90
11122;DHT22;5615;49.304;10.576;2023-12-14T10:57:39;8.70;99.90
11122;DHT22;5615;49.304;10.576;2023-12-14T11:00:06;8.50;99.90
11122;DHT22;5615;49.304;10.576;2023-12-14T11:02:39;9.50;99.90
11122;DHT22;5615;49.304;10.576;2023-12-14T11:05:08;10.00;99.90
11122;DHT22;5615;49.304;10.576;2023-12-14T11:07:44;9.60;99.90
11122;DHT22;5615;49.304;10.576;2023-12-14T11:10:10;9.40;99.90
11122;DHT22;5615;49.304;10.576;2023-12-14T11:12:50;10.20;99.90
11122;DHT22;5615;49.304;10.576;2023-12-14T11:15:18;10.50;99.90
11122;DHT22;5615;49.304;10.576;2023-12-14T11:18:19;9.80;99.90
11122;DHT22;5615;49.304;10.576;2023-12-14T11:20:51;9.00;99.90
11122;DHT22;5615;49.304;10.576;2023-12-14T11:23:26;8.60;99.90
11122;DHT22;5615;49.304;10.576;2023-12-14T11:25:57;8.60;99.90
11122;DHT22;5615;49.304;10.576;2023-12-14T11:28:25;8.40;99.90
11122;DHT22;5615;49.304;10.576;2023-12-14T11:30:52;8.30;99.90
11122;DHT22;5615;49.304;10.576;2023-12-14T11:33:19;8.10;99.90
11122;DHT22;5615;49.304;10.576;2023-12-14T11:35:45;8.00;99.90
11122;DHT22;5615;49.304;10.576;2023-12-14T11:38:12;8.00;99.90
11122;DHT22;5615;49.304;10.576;2023-12-14T11:40:39;7.90;99.90
11122;DHT22;5615;49.304;10.576;2023-12-14T11:43:06;7.90;99.90
11122;DHT22;5615;49.304;10.576;2023-12-14T11:45:35;7.80;99.90
11122;DHT22;5615;49.304;10.576;2023-12-14T11:48:02;7.70;99.90
11122;DHT22;5615;49.304;10.576;2023-12-14T11:50:31;7.70;99.90
11122;DHT22;5615;49.304;10.576;2023-12-14T11:52:59;7.80;99.90
11122;DHT22;5615;49.304;10.576;2023-12-14T11:55:26;7.70;99.90
11122;DHT22;5615;49.304;10.576;2023-12-14T11:57:53;7.60;99.90
11122;DHT22;5615;49.304;10.576;2023-12-14T12:00:23;7.70;99.90
11122;DHT22;5615;49.304;10.576;2023-12-14T12:02:52;7.50;99.90
11122;DHT22;5615;49.304;10.576;2023-12-14T12:05:18;7.50;99.90
11122;DHT22;5615;49.304;10.576;2023-12-14T12:07:45;7.50;99.90
11122;DHT22;5615;49.304;10.576;2023-12-14T12:10:12;7.50;99.90
11122;DHT22;5615;49.304;10.576;2023-12-14T12:12:38;7.60;99.90
11122;DHT22;5615;49.304;10.576;2023-12-14T12:15:05;7.60;99.90
11122;DHT22;5615;49.304;10.576;2023-12-14T12:17:32;7.60;99.90
11122;DHT22;5615;49.304;10.576;2023-12-14T12:20:04;7.60;99.90
11122;DHT22;5615;49.304;10.576;2023-12-14T12:22:31;7.60;99.90
11122;DHT22;5615;49.304;10.576;2023-12-14T12:24:58;7.60;99.90
11122;DHT22;5615;49.304;10.576;2023-12-14T12:27:26;7.50;99.90
11122;DHT22;5615;49.304;10.576;2023-12-14T12:29:52;7.50;99.90
11122;DHT22;5615;49.304;10.576;2023-12-14T12:32:20;7.40;99.90
11122;DHT22;5615;49.304;10.576;2023-12-14T12:34:47;7.30;99.90
11122;DHT22;5615;49.304;10.576;2023-12-14T12:37:15;7.30;99.90
11122;DHT22;5615;49.304;10.576;2023-12-14T12:39:41;7.30;99.90
11122;DHT22;5615;49.304;10.576;2023-12-14T12:42:08;7.30;99.90
11122;DHT22;5615;49.304;10.576;2023-12-14T12:44:34;7.20;99.90
11122;DHT22;5615;49.304;10.576;2023-12-14T12:47:01;7.20;99.90
11122;DHT22;5615;49.304;10.576;2023-12-14T12:49:29;7.20;99.90
11122;DHT22;5615;49.304;10.576;2023-12-14T12:51:56;7.20;99.90
11122;DHT22;5615;49.304;10.576;2023-12-14T12:54:24;7.10;99.90
11122;DHT22;5615;49.304;10.576;2023-12-14T12:56:50;7.10;99.90
11122;DHT22;5615;49.304;10.576;2023-12-14T12:59:16;7.10;99.90
11122;DHT22;5615;49.304;10.576;2023-12-14T13:01:43;7.10;99.90
11122;DHT22;5615;49.304;10.576;2023-12-14T13:04:18;7.10;99.90
11122;DHT22;5615;49.304;10.576;2023-12-14T13:06:45;7.10;99.90
11122;DHT22;5615;49.304;10.576;2023-12-14T13:09:12;7.10;99.90
11122;DHT22;5615;49.304;10.576;2023-12-14T13:11:40;7.10;99.90
11122;DHT22;5615;49.304;10.576;2023-12-14T13:14:07;7.00;99.90
11122;DHT22;5615;49.304;10.576;2023-12-14T13:16:34;7.00;99.90
11122;DHT22;5615;49.304;10.576;2023-12-14T13:19:01;7.00;99.90
11122;DHT22;5615;49.304;10.576;2023-12-14T13:21:29;6.90;99.90
11122;DHT22;5615;49.304;10.576;2023-12-14T13:23:55;6.90;99.90
11122;DHT22;5615;49.304;10.576;2023-12-14T13:26:23;6.90;99.90
11122;DHT22;5615;49.304;10.576;2023-12-14T13:28:51;6.90;99.90
11122;DHT22;5615;49.304;10.576;2023-12-14T13:31:18;6.80;99.90
11122;DHT22;5615;49.304;10.576;2023-12-14T13:33:46;6.80;99.90
11122;DHT22;5615;49.304;10.576;2023-12-14T13:36:13;6.80;99.90
11122;DHT22;5615;49.304;10.576;2023-12-14T13:38:40;6.80;99.90
11122;DHT22;5615;49.304;10.576;2023-12-14T13:41:07;6.80;99.90
11122;DHT22;5615;49.304;10.576;2023-12-14T13:43:34;6.80;99.90
11122;DHT22;5615;49.304;10.576;2023-12-14T13:46:03;6.80;99.90
11122;DHT22;5615;49.304;10.576;2023-12-14T13:48:30;6.70;99.90
11122;DHT22;5615;49.304;10.576;2023-12-14T13:50:56;6.70;99.90
11122;DHT22;5615;49.304;10.576;2023-12-14T13:53:23;6.70;99.90
11122;DHT22;5615;49.304;10.576;2023-12-14T13:55:50;6.60;99.90
11122;DHT22;5615;49.304;10.576;2023-12-14T13:58:17;6.60;99.90
11122;DHT22;5615;49.304;10.576;2023-12-14T14:00:44;6.50;99.90
11122;DHT22;5615;49.304;10.576;2023-12-14T14:03:12;6.50;99.90
11122;DHT22;5615;49.304;10.576;2023-12-14T14:05:39;6.50;99.90
11122;DHT22;5615;49.304;10.576;2023-12-14T14:08:06;6.50;99.90
11122;DHT22;5615;49.304;10.576;2023-12-14T14:10:32;6.40;99.90
11122;DHT22;5615;49.304;10.576;2023-12-14T14:12:59;6.40;99.90
11122;DHT22;5615;49.304;10.576;2023-12-14T14:15:26;6.40;99.90
11122;DHT22;5615;49.304;10.576;2023-12-14T14:17:53;6.30;99.90
11122;DHT22;5615;49.304;10.576;2023-12-14T14:20:22;6.10;99.90
11122;DHT22;5615;49.304;10.576;2023-12-14T14:22:50;5.80;99.90
11122;DHT22;5615;49.304;10.576;2023-12-14T14:25:16;5.70;99.90
11122;DHT22;5615;49.304;10.576;2023-12-14T14:27:44;5.70;99.90
11122;DHT22;5615;49.304;10.576;2023-12-14T14:30:12;5.70;99.90
11122;DHT22;5615;49.304;10.576;2023-12-14T14:32:39;5.70;99.90
11122;DHT22;5615;49.304;10.576;2023-12-14T14:35:07;5.70;99.90
11122;DHT22;5615;49.304;10.576;2023-12-14T14:37:35;5.80;99.90
11122;DHT22;5615;49.304;10.576;2023-12-14T14:40:02;5.70;99.90
11122;DHT22;5615;49.304;10.576;2023-12-14T14:42:29;5.80;99.90
11122;DHT22;5615;49.304;10.576;2023-12-14T14:44:57;5.80;99.90
11122;DHT22;5615;49.304;10.576;2023-12-14T14:47:24;5.80;99.90
11122;DHT22;5615;49.304;10.576;2023-12-14T14:49:51;5.80;99.90
11122;DHT22;5615;49.304;10.576;2023-12-14T14:52:22;5.80;99.90
11122;DHT22;5615;49.304;10.576;2023-12-14T14:54:50;5.80;99.90
11122;DHT22;5615;49.304;10.576;2023-12-14T14:57:16;5.90;99.90
11122;DHT22;5615;49.304;10.576;2023-12-14T14:59:44;5.90;99.90
11122;DHT22;5615;49.304;10.576;2023-12-14T15:02:10;5.90;99.90
11122;DHT22;5615;49.304;10.576;2023-12-14T15:04:37;5.90;99.90
11122;DHT22;5615;49.304;10.576;2023-12-14T15:07:04;5.90;99.90
11122;DHT22;5615;49.304;10.576;2023-12-14T15:09:31;5.90;99.90
11122;DHT22;5615;49.304;10.576;2023-12-14T15:11:59;5.90;99.90
11122;DHT22;5615;49.304;10.576;2023-12-14T15:14:26;5.90;99.90
11122;DHT22;5615;49.304;10.576;2023-12-14T15:16:53;5.90;99.90
11122;DHT22;5615;49.304;10.576;2023-12-14T15:19:20;5.90;99.90
11122;DHT22;5615;49.304;10.576;2023-12-14T15:21:47;5.90;99.90
11122;DHT22;5615;49.304;10.576;2023-12-14T15:24:13;5.80;99.90
11122;DHT22;5615;49.304;10.576;2023-12-14T15:26:40;5.80;99.90
11122;DHT22;5615;49.304;10.576;2023-12-14T15:29:09;5.80;99.90
11122;DHT22;5615;49.304;10.576;2023-12-14T15:31:35;5.80;99.90
11122;DHT22;5615;49.304;10.576;2023-12-14T15:34:02;5.80;99.90
11122;DHT22;5615;49.304;10.576;2023-12-14T15:36:32;5.80;99.90
11122;DHT22;5615;49.304;10.576;2023-12-14T15:38:59;5.80;99.90
11122;DHT22;5615;49.304;10.576;2023-12-14T15:41:26;5.80;99.90
11122;DHT22;5615;49.304;10.576;2023-12-14T15:43:53;5.80;99.90
11122;DHT22;5615;49.304;10.576;2023-12-14T15:46:21;5.80;99.90
11122;DHT22;5615;49.304;10.576;2023-12-14T15:48:47;5.80;99.90
11122;DHT22;5615;49.304;10.576;2023-12-14T15:51:14;5.80;99.90
11122;DHT22;5615;49.304;10.576;2023-12-14T15:53:41;5.80;99.90
11122;DHT22;5615;49.304;10.576;2023-12-14T15:56:08;5.70;99.90
11122;DHT22;5615;49.304;10.576;2023-12-14T15:58:35;5.70;99.90
11122;DHT22;5615;49.304;10.576;2023-12-14T16:01:01;5.60;99.90
11122;DHT22;5615;49.304;10.576;2023-12-14T16:03:29;5.60;99.90
11122;DHT22;5615;49.304;10.576;2023-12-14T16:05:56;5.60;99.90
11122;DHT22;5615;49.304;10.576;2023-12-14T16:08:23;5.60;99.90
11122;DHT22;5615;49.304;10.576;2023-12-14T16:10:49;5.60;99.90
11122;DHT22;5615;49.304;10.576;2023-12-14T16:13:18;5.60;99.90
11122;DHT22;5615;49.304;10.576;2023-12-14T16:15:45;5.50;99.90
11122;DHT22;5615;49.304;10.576;2023-12-14T16:18:11;5.60;99.90
11122;DHT22;5615;49.304;10.576;2023-12-14T16:20:40;5.60;99.90